Mayetta, Kansas
Current Conditions -  °F | °C
As of 11:53 AM on Saturday 25 Oct 2014 (Local Time) from KTOP Reporting Station
Clear Clear  
Wind Chill: 73°   Ceiling: Unl
Heat Index: 73°   Visibility: 10mi
Dew Point: 64°   Wind: 7mph
Humidity: 73%   Direction: 70°ENE
Pressure: 30.08"   Gusts: NA
Location:  39.34°N, 95.72°W
Report Text: KTOP 251653Z 07006KT 10SM CLR 23/18 A3008 RMK AO2 SLP182 T02280178
Loading
Personal Weather Stations






























Interactive Weather Map
Tropical Storm Tracking
New forecast layout! Learn more

10-Day Weather Forecast

Advertisements
Track Severe Weather on mobile